Time;durP1;ratioP1;P1;durP2;ratioP2;P2;SDS_P1;SDS_P2;PMS_P1;PMS_P2;Temp;Humidity;BMP_temperature;BMP_pressure;BME280_temperature;BME280_humidity;BME280_pressure;Samples;Min_cycle;Max_cycle;Signal;HPM_P1;HPM_P2
2022/05/15 00:01:23;;;;;;;7.25;3.15;;;22.40;66.10;;;;;;4962656;28;20201;-77
2022/05/15 00:03:52;;;;;;;3.17;2.63;;;22.40;66.00;;;;;;4956872;28;20332;-75
2022/05/15 00:06:24;;;;;;;4.70;2.80;;;22.40;65.90;;;;;;4961829;28;20193;-77
2022/05/15 00:08:52;;;;;;;6.85;3.40;;;22.40;65.90;;;;;;4962355;28;20648;-76
2022/05/15 00:11:22;;;;;;;5.97;3.38;;;22.40;65.80;;;;;;4964047;28;20205;-78
2022/05/15 00:13:50;;;;;;;5.13;2.55;;;22.40;65.90;;;;;;4961784;28;20829;-76
2022/05/15 00:16:19;;;;;;;3.22;2.75;;;22.40;65.80;;;;;;4963634;28;20682;-77
2022/05/15 00:18:49;;;;;;;4.35;3.10;;;22.40;65.70;;;;;;4962909;28;20189;-77
2022/05/15 00:21:18;;;;;;;9.82;3.30;;;22.30;65.50;;;;;;4962625;28;20186;-78
2022/05/15 00:23:47;;;;;;;6.03;3.38;;;22.30;65.30;;;;;;4961577;28;20194;-75
2022/05/15 00:26:15;;;;;;;6.32;3.13;;;22.30;65.10;;;;;;4960878;28;20826;-78
2022/05/15 00:28:43;;;;;;;7.57;2.90;;;22.30;64.80;;;;;;4964569;28;20665;-76
2022/05/15 00:31:12;;;;;;;7.30;3.30;;;22.30;64.10;;;;;;4965616;28;20218;-76
2022/05/15 00:33:41;;;;;;;9.57;3.47;;;22.20;63.80;;;;;;4967897;28;20393;-77
2022/05/15 00:36:10;;;;;;;5.60;2.88;;;22.20;63.60;;;;;;4968492;28;20232;-75
2022/05/15 00:38:39;;;;;;;7.30;3.03;;;22.20;63.90;;;;;;4965567;28;20867;-75
2022/05/15 00:41:08;;;;;;;7.15;3.20;;;22.20;63.80;;;;;;4970400;28;20209;-76
2022/05/15 00:43:46;;;;;;;5.57;3.08;;;22.20;63.80;;;;;;4962282;28;20209;-76
2022/05/15 00:46:17;;;;;;;4.20;2.83;;;22.20;63.90;;;;;;4964160;28;20299;-78
2022/05/15 00:48:46;;;;;;;7.63;3.10;;;22.20;63.80;;;;;;4968531;28;20218;-77
2022/05/15 00:51:22;;;;;;;5.43;3.13;;;22.20;63.80;;;;;;4966008;28;20225;-77
2022/05/15 00:53:55;;;;;;;5.00;2.92;;;22.10;63.80;;;;;;4967136;28;20205;-77
2022/05/15 00:56:27;;;;;;;7.22;2.80;;;22.10;63.70;;;;;;4963508;28;20198;-76
2022/05/15 00:59:01;;;;;;;5.68;2.97;;;22.20;63.80;;;;;;4967854;28;20205;-77
2022/05/15 01:01:29;;;;;;;6.28;3.17;;;22.20;63.80;;;;;;4965641;28;20201;-76
2022/05/15 01:03:58;;;;;;;10.82;3.60;;;22.10;63.80;;;;;;4968966;28;20232;-76
2022/05/15 01:06:29;;;;;;;5.13;3.22;;;22.20;63.80;;;;;;4971578;28;20738;-76
2022/05/15 01:08:57;;;;;;;3.67;2.78;;;22.20;63.90;;;;;;4967945;28;20190;-76
2022/05/15 01:11:26;;;;;;;7.03;3.67;;;22.20;64.00;;;;;;4962769;28;20224;-77
2022/05/15 01:13:55;;;;;;;9.88;3.10;;;22.10;63.90;;;;;;4966325;28;20624;-78
2022/05/15 01:16:26;;;;;;;9.02;3.53;;;22.10;64.00;;;;;;4970125;28;20803;-77
2022/05/15 01:18:59;;;;;;;5.78;3.35;;;22.10;64.00;;;;;;4968695;28;20205;-76
2022/05/15 01:21:33;;;;;;;4.68;3.17;;;22.10;64.20;;;;;;4969556;28;20202;-79
2022/05/15 01:24:02;;;;;;;5.95;3.15;;;22.10;64.40;;;;;;4969478;28;20202;-78
2022/05/15 01:26:31;;;;;;;7.93;3.47;;;22.00;64.50;;;;;;4966251;28;20206;-78
2022/05/15 01:29:02;;;;;;;4.03;3.10;;;22.10;64.90;;;;;;4969103;28;20197;-78
2022/05/15 01:31:31;;;;;;;4.70;3.60;;;22.00;64.90;;;;;;4969460;28;20213;-78
2022/05/15 01:33:59;;;;;;;7.68;3.47;;;22.00;65.90;;;;;;4967368;28;20197;-76
2022/05/15 01:36:29;;;;;;;6.82;3.10;;;21.90;65.00;;;;;;4970005;28;20293;-78
2022/05/15 01:38:57;;;;;;;6.55;3.35;;;21.90;64.80;;;;;;4970347;28;20197;-78
2022/05/15 01:41:27;;;;;;;6.30;3.78;;;21.90;64.70;;;;;;4967654;28;20197;-78
2022/05/15 01:43:55;;;;;;;4.65;3.17;;;21.90;64.90;;;;;;4962067;28;20202;-78
2022/05/15 01:46:26;;;;;;;5.85;3.20;;;21.90;64.80;;;;;;4958295;28;20237;-78
2022/05/15 01:48:55;;;;;;;5.85;3.55;;;21.90;64.90;;;;;;4965881;28;20194;-77
2022/05/15 01:51:25;;;;;;;5.45;3.08;;;21.80;64.60;;;;;;4961835;28;20224;-78
2022/05/15 01:53:55;;;;;;;5.75;3.20;;;21.80;64.60;;;;;;4966912;28;20198;-76
2022/05/15 01:56:23;;;;;;;7.15;3.03;;;21.80;64.50;;;;;;4965503;28;20210;-79
2022/05/15 01:58:52;;;;;;;4.15;2.67;;;21.70;64.30;;;;;;4961899;28;20646;-78
2022/05/15 02:01:20;;;;;;;4.03;2.75;;;21.70;64.40;;;;;;4965853;28;20202;-78
2022/05/15 02:03:49;;;;;;;4.93;2.70;;;21.70;64.30;;;;;;4955484;28;20289;-78
2022/05/15 02:06:17;;;;;;;6.32;3.15;;;21.70;64.30;;;;;;4964711;28;20209;-78
2022/05/15 02:08:47;;;;;;;5.75;3.40;;;21.60;64.10;;;;;;4962139;28;20285;-78
2022/05/15 02:11:17;;;;;;;5.22;2.67;;;21.60;64.90;;;;;;4966897;28;20206;-79
2022/05/15 02:13:46;;;;;;;5.90;2.50;;;21.60;64.00;;;;;;4963819;28;20201;-76
2022/05/15 02:16:14;;;;;;;4.13;2.42;;;21.60;63.70;;;;;;4964883;28;20679;-79
2022/05/15 02:18:42;;;;;;;6.43;2.70;;;21.50;63.60;;;;;;4967410;28;20565;-78
2022/05/15 02:21:11;;;;;;;10.35;2.78;;;21.50;63.40;;;;;;4966831;28;20202;-76
2022/05/15 02:23:39;;;;;;;4.97;2.50;;;21.50;63.40;;;;;;4962763;28;20208;-75
2022/05/15 02:26:08;;;;;;;5.90;2.83;;;21.50;63.40;;;;;;4963878;28;20288;-77
2022/05/15 02:28:38;;;;;;;5.03;2.40;;;21.40;63.30;;;;;;4963363;28;20197;-78
2022/05/15 02:31:07;;;;;;;7.78;2.67;;;21.40;63.40;;;;;;4962877;28;20209;-76
2022/05/15 02:33:36;;;;;;;5.17;2.40;;;21.40;63.50;;;;;;4957711;28;20668;-76
2022/05/15 02:36:05;;;;;;;8.45;2.80;;;21.40;63.20;;;;;;4960670;28;20201;-76
2022/05/15 02:38:33;;;;;;;4.50;2.37;;;21.30;63.00;;;;;;4961700;28;20210;-76
2022/05/15 02:41:02;;;;;;;5.70;2.33;;;21.30;63.10;;;;;;4962174;28;20209;-79
2022/05/15 02:43:30;;;;;;;7.93;2.63;;;21.30;63.20;;;;;;4965371;28;20202;-77
2022/05/15 02:46:00;;;;;;;6.20;2.40;;;21.20;63.20;;;;;;4963837;28;20198;-76
2022/05/15 02:51:15;;;;;;;6.20;2.30;;;21.20;63.20;;;;;;4962659;28;20220;-77
2022/05/15 02:53:45;;;;;;;3.63;2.28;;;21.20;63.20;;;;;;4964161;28;20690;-78
2022/05/15 02:56:16;;;;;;;2.60;2.07;;;21.20;63.00;;;;;;4959939;28;20201;-79
2022/05/15 02:58:44;;;;;;;11.68;2.65;;;21.20;62.80;;;;;;4965454;28;20198;-76
2022/05/15 03:01:15;;;;;;;3.97;2.40;;;21.10;62.60;;;;;;4962331;28;20206;-77
2022/05/15 03:03:43;;;;;;;2.60;1.90;;;21.20;62.80;;;;;;4961757;28;20221;-76
2022/05/15 03:06:13;;;;;;;3.80;1.83;;;21.20;62.80;;;;;;4963726;28;20480;-77
2022/05/15 03:08:43;;;;;;;3.87;1.90;;;21.10;62.60;;;;;;4964685;28;20208;-77
2022/05/15 03:11:12;;;;;;;3.30;1.97;;;21.10;62.40;;;;;;4966332;28;20220;-77
2022/05/15 03:13:41;;;;;;;2.83;1.80;;;21.10;62.50;;;;;;4961297;28;20198;-78
2022/05/15 03:16:10;;;;;;;4.43;2.20;;;21.20;62.60;;;;;;4962551;28;20194;-78
2022/05/15 03:18:42;;;;;;;4.22;1.80;;;21.20;62.50;;;;;;4966435;28;20272;-76
2022/05/15 03:21:13;;;;;;;3.47;2.17;;;21.10;62.00;;;;;;4962899;28;20938;-77
2022/05/15 03:23:41;;;;;;;4.03;2.05;;;21.20;62.10;;;;;;4966108;28;20285;-76
2022/05/15 03:26:09;;;;;;;3.88;2.10;;;21.10;62.10;;;;;;4962355;28;20197;-79
2022/05/15 03:28:38;;;;;;;4.60;1.92;;;21.10;61.90;;;;;;4963352;28;20568;-78
2022/05/15 03:31:06;;;;;;;4.07;1.83;;;21.10;61.70;;;;;;4964830;28;20224;-77
2022/05/15 03:33:34;;;;;;;4.85;1.95;;;21.10;61.90;;;;;;4960409;28;20256;-76
2022/05/15 03:36:10;;;;;;;3.47;1.70;;;21.10;61.90;;;;;;4957821;28;20205;-78
2022/05/15 03:38:39;;;;;;;2.95;1.55;;;21.10;61.70;;;;;;4962092;28;20198;-77
2022/05/15 03:41:08;;;;;;;2.20;1.70;;;21.10;61.60;;;;;;4959947;28;20799;-78
2022/05/15 03:43:37;;;;;;;2.92;1.77;;;21.10;61.40;;;;;;4963319;28;20198;-77
2022/05/15 03:46:07;;;;;;;2.70;1.50;;;21.10;61.40;;;;;;4952404;28;20201;-78
2022/05/15 03:48:36;;;;;;;4.47;1.60;;;21.10;60.90;;;;;;4964954;28;20193;-78
2022/05/15 03:51:06;;;;;;;3.60;1.63;;;21.10;61.00;;;;;;4964968;28;20209;-78
2022/05/15 03:53:35;;;;;;;4.28;1.77;;;21.20;61.10;;;;;;4962660;28;20206;-78
2022/05/15 03:56:05;;;;;;;7.80;1.93;;;21.20;61.00;;;;;;4965817;28;21789;-79
2022/05/15 03:58:37;;;;;;;3.28;1.90;;;21.10;60.80;;;;;;4955826;28;20205;-77
2022/05/15 04:01:06;;;;;;;4.00;1.50;;;21.20;61.00;;;;;;4960006;28;20224;-78
2022/05/15 04:03:35;;;;;;;6.00;1.63;;;21.20;61.00;;;;;;4962675;28;20212;-78
2022/05/15 04:06:05;;;;;;;1.73;1.33;;;21.20;61.00;;;;;;4958987;28;20597;-77
2022/05/15 04:08:33;;;;;;;7.60;2.27;;;21.20;60.60;;;;;;4964565;28;20213;-78
2022/05/15 04:11:01;;;;;;;4.53;1.60;;;21.20;60.50;;;;;;4959806;28;20213;-77
2022/05/15 04:13:30;;;;;;;2.53;1.60;;;21.20;60.70;;;;;;4962687;28;20209;-77
2022/05/15 04:15:59;;;;;;;4.63;1.80;;;21.20;60.50;;;;;;4965607;28;20198;-77
2022/05/15 04:18:27;;;;;;;4.43;1.60;;;21.20;61.50;;;;;;4961455;28;20201;-77
2022/05/15 04:20:55;;;;;;;4.32;1.83;;;21.30;60.70;;;;;;4965108;28;20208;-78
2022/05/15 04:23:25;;;;;;;5.55;1.90;;;21.30;60.50;;;;;;4960535;28;20202;-77
2022/05/15 04:25:53;;;;;;;4.28;1.95;;;21.40;60.70;;;;;;4961125;28;20557;-77
2022/05/15 04:28:22;;;;;;;5.53;1.80;;;21.40;60.60;;;;;;4962566;28;20213;-77
2022/05/15 04:30:50;;;;;;;6.30;1.80;;;21.40;60.70;;;;;;4962237;28;20208;-78
2022/05/15 04:33:19;;;;;;;2.10;1.40;;;21.50;60.60;;;;;;4960552;28;20217;-77
2022/05/15 04:35:47;;;;;;;3.35;2.00;;;21.50;60.60;;;;;;4961018;28;20714;-77
2022/05/15 04:38:15;;;;;;;3.50;1.52;;;21.50;60.30;;;;;;4958849;28;20209;-77
2022/05/15 04:40:45;;;;;;;3.80;2.00;;;21.60;60.50;;;;;;4960867;28;20212;-77
2022/05/15 04:43:13;;;;;;;5.00;2.20;;;21.60;60.50;;;;;;4961534;28;20198;-78
2022/05/15 04:45:42;;;;;;;6.83;1.93;;;21.60;60.30;;;;;;4963064;28;20201;-77
2022/05/15 04:48:11;;;;;;;2.93;1.67;;;21.60;60.20;;;;;;4960836;28;20230;-77
2022/05/15 04:50:40;;;;;;;4.13;2.17;;;21.60;59.90;;;;;;4962838;28;20198;-77
2022/05/15 04:53:08;;;;;;;4.90;1.87;;;21.60;59.40;;;;;;4964146;28;20214;-78
2022/05/15 04:55:37;;;;;;;7.67;2.03;;;21.60;59.60;;;;;;4962829;28;20194;-76
2022/05/15 04:58:06;;;;;;;4.57;1.65;;;21.60;59.50;;;;;;4959497;28;20386;-77
2022/05/15 05:00:35;;;;;;;3.23;1.60;;;21.60;59.30;;;;;;4962328;28;20202;-77
2022/05/15 05:03:04;;;;;;;2.40;1.48;;;21.60;59.40;;;;;;4958372;28;20206;-77
2022/05/15 05:05:33;;;;;;;3.22;1.67;;;21.60;59.50;;;;;;4962201;28;20193;-77
2022/05/15 05:08:01;;;;;;;2.53;1.60;;;21.60;59.70;;;;;;4962259;28;20198;-78
2022/05/15 05:10:35;;;;;;;1.77;1.48;;;21.60;59.40;;;;;;4962175;28;20844;-77
2022/05/15 05:13:06;;;;;;;3.47;1.67;;;21.60;59.50;;;;;;4961306;28;20228;-77
2022/05/15 05:15:36;;;;;;;3.90;2.30;;;21.70;59.70;;;;;;4959328;28;20209;-78
2022/05/15 05:18:05;;;;;;;5.03;1.63;;;21.70;59.70;;;;;;4967901;28;20194;-77
2022/05/15 05:20:34;;;;;;;2.45;1.63;;;21.70;59.30;;;;;;4968377;28;20209;-78
2022/05/15 05:23:02;;;;;;;8.23;1.80;;;21.70;59.30;;;;;;4965277;28;20194;-77
2022/05/15 05:25:30;;;;;;;4.38;1.80;;;21.70;58.90;;;;;;4965698;28;20199;-78
2022/05/15 05:27:59;;;;;;;5.77;1.70;;;21.70;58.90;;;;;;4965648;28;20202;-77
2022/05/15 05:30:27;;;;;;;4.63;1.63;;;21.80;59.00;;;;;;4968211;28;20201;-77
2022/05/15 05:32:57;;;;;;;2.90;1.40;;;21.80;58.90;;;;;;4964691;28;20218;-78
2022/05/15 05:35:27;;;;;;;4.83;2.03;;;21.80;58.70;;;;;;4964180;28;20703;-78
2022/05/15 05:37:56;;;;;;;2.30;1.48;;;21.80;58.40;;;;;;4961898;28;20190;-79
2022/05/15 05:40:24;;;;;;;4.80;1.77;;;21.90;58.20;;;;;;4963544;28;20205;-78
2022/05/15 05:42:53;;;;;;;2.92;1.50;;;21.90;58.20;;;;;;4967876;28;20198;-78
2022/05/15 05:45:21;;;;;;;4.22;1.60;;;21.90;57.80;;;;;;4965713;28;20202;-78
2022/05/15 05:47:51;;;;;;;3.45;1.60;;;21.90;57.80;;;;;;4965172;28;20707;-77
2022/05/15 05:50:23;;;;;;;2.70;1.60;;;21.90;57.10;;;;;;4963967;28;20202;-77
2022/05/15 05:52:54;;;;;;;5.53;1.50;;;21.90;57.30;;;;;;4963743;28;20237;-78
2022/05/15 05:55:23;;;;;;;6.72;1.63;;;21.90;57.30;;;;;;4965567;28;20202;-78
2022/05/15 05:57:52;;;;;;;4.30;1.52;;;21.90;57.40;;;;;;4961359;28;20711;-77
2022/05/15 06:00:28;;;;;;;1.98;1.30;;;22.00;57.30;;;;;;4962435;28;20198;-79
2022/05/15 06:04:39;;;;;;;2.42;1.25;;;22.00;57.20;;;;;;4967671;28;20196;-78
2022/05/15 06:05:46;;;;;;;3.83;1.50;;;22.00;57.20;;;;;;4967386;28;20201;-77
2022/05/15 06:08:15;;;;;;;3.75;1.20;;;22.10;57.90;;;;;;4966573;28;20208;-79
2022/05/15 06:10:44;;;;;;;7.55;1.80;;;22.10;57.30;;;;;;4967288;28;20725;-78
2022/05/15 06:13:13;;;;;;;1.98;1.38;;;22.10;57.10;;;;;;4964500;28;20223;-79
2022/05/15 06:15:41;;;;;;;2.40;1.20;;;22.20;57.20;;;;;;4964586;28;20683;-78
2022/05/15 06:18:10;;;;;;;4.35;1.60;;;22.20;57.10;;;;;;4965118;28;20781;-78
2022/05/15 06:20:38;;;;;;;5.47;1.60;;;22.30;57.20;;;;;;4966635;28;20197;-78
2022/05/15 06:23:08;;;;;;;7.85;1.67;;;22.30;57.10;;;;;;4966223;28;20212;-78
2022/05/15 06:25:36;;;;;;;1.92;1.33;;;22.30;56.90;;;;;;4965422;28;20205;-77
2022/05/15 06:28:06;;;;;;;3.08;1.23;;;22.40;57.20;;;;;;4966947;28;20206;-78
2022/05/15 06:30:36;;;;;;;3.33;1.60;;;22.40;57.20;;;;;;4965050;28;20194;-77
2022/05/15 06:33:08;;;;;;;7.95;1.55;;;22.40;57.20;;;;;;4964751;28;20221;-77
2022/05/15 06:35:39;;;;;;;4.38;1.35;;;22.50;57.20;;;;;;4962635;28;20205;-77
2022/05/15 06:38:09;;;;;;;5.32;1.40;;;22.50;56.60;;;;;;4962543;28;20198;-78
2022/05/15 06:40:37;;;;;;;3.15;1.60;;;22.50;56.50;;;;;;4966482;28;20648;-78
2022/05/15 06:43:06;;;;;;;3.13;1.25;;;22.50;56.80;;;;;;4967008;28;20201;-77
2022/05/15 06:45:35;;;;;;;5.63;1.50;;;22.50;56.80;;;;;;4962317;28;20229;-76
2022/05/15 06:48:04;;;;;;;2.42;1.20;;;22.50;56.50;;;;;;4961871;28;20773;-78
2022/05/15 06:50:32;;;;;;;5.07;1.65;;;22.50;56.80;;;;;;4959382;28;20278;-78
2022/05/15 06:53:01;;;;;;;4.85;1.73;;;22.50;56.90;;;;;;4962850;28;20218;-76
2022/05/15 06:55:30;;;;;;;4.28;1.70;;;22.50;56.90;;;;;;4967841;28;20440;-77
2022/05/15 06:57:58;;;;;;;4.03;1.73;;;22.50;56.80;;;;;;4966123;28;20312;-78
2022/05/15 07:00:29;;;;;;;3.88;1.48;;;22.40;56.50;;;;;;4966534;28;20207;-78
2022/05/15 07:02:57;;;;;;;5.50;1.52;;;22.40;56.60;;;;;;4959906;28;20194;-78
2022/05/15 07:05:30;;;;;;;7.03;1.73;;;22.40;56.80;;;;;;4964315;28;20245;-78
2022/05/15 07:07:59;;;;;;;3.38;2.00;;;22.40;57.00;;;;;;4964175;28;20200;-77
2022/05/15 07:10:27;;;;;;;5.70;1.60;;;22.40;57.10;;;;;;4960037;28;20208;-78
2022/05/15 07:12:57;;;;;;;4.63;1.83;;;22.40;57.10;;;;;;4963699;28;20221;-78
2022/05/15 07:15:25;;;;;;;3.25;1.60;;;22.40;56.90;;;;;;4959153;28;20202;-77
2022/05/15 07:17:56;;;;;;;3.50;1.80;;;22.40;57.10;;;;;;4964586;28;20201;-78
2022/05/15 07:20:24;;;;;;;2.53;1.67;;;22.30;56.90;;;;;;4967241;28;20223;-79
2022/05/15 07:22:52;;;;;;;5.72;2.08;;;22.20;56.50;;;;;;4967944;28;20314;-78
2022/05/15 07:25:22;;;;;;;7.28;1.50;;;22.20;56.70;;;;;;4965071;28;20201;-77
2022/05/15 07:27:50;;;;;;;4.55;1.48;;;22.10;56.80;;;;;;4967735;28;20206;-78
2022/05/15 07:30:20;;;;;;;5.32;1.90;;;22.10;56.90;;;;;;4956752;28;20205;-77
2022/05/15 07:32:49;;;;;;;3.10;1.52;;;22.20;57.10;;;;;;4967159;28;20225;-77
2022/05/15 07:35:19;;;;;;;4.32;2.00;;;22.10;57.20;;;;;;4968445;28;20213;-77
2022/05/15 07:37:54;;;;;;;3.22;1.65;;;22.20;57.40;;;;;;4967010;28;20198;-78
2022/05/15 07:40:23;;;;;;;3.15;1.77;;;22.20;57.50;;;;;;4965914;28;20197;-76
2022/05/15 07:42:51;;;;;;;3.33;1.60;;;22.20;57.30;;;;;;4966714;28;20194;-78
2022/05/15 07:45:21;;;;;;;3.88;1.70;;;22.20;57.10;;;;;;4967038;28;20208;-78
2022/05/15 07:47:49;;;;;;;7.43;2.30;;;22.20;56.90;;;;;;4965336;28;20232;-77
2022/05/15 07:50:18;;;;;;;5.10;2.00;;;22.30;57.00;;;;;;4967574;28;20206;-77
2022/05/15 07:52:47;;;;;;;4.78;2.20;;;22.30;56.80;;;;;;4962037;28;20409;-78
2022/05/15 07:55:16;;;;;;;3.28;1.77;;;22.30;56.80;;;;;;4964304;28;20225;-77
2022/05/15 07:57:44;;;;;;;5.63;1.60;;;22.40;56.80;;;;;;4961743;28;20205;-78
2022/05/15 08:00:19;;;;;;;2.92;1.52;;;22.40;56.20;;;;;;4964296;28;20204;-77
2022/05/15 08:02:49;;;;;;;3.33;1.60;;;22.40;55.70;;;;;;4966179;28;20832;-78
2022/05/15 08:08:10;;;;;;;2.75;1.30;;;22.50;56.20;;;;;;4958568;28;20599;-78
2022/05/15 08:10:40;;;;;;;4.10;1.33;;;22.60;56.30;;;;;;4964057;28;20559;-78
2022/05/15 08:13:10;;;;;;;6.07;1.70;;;22.60;56.20;;;;;;4965217;28;20943;-77
2022/05/15 08:15:38;;;;;;;5.15;1.67;;;22.70;56.10;;;;;;4964388;28;20201;-77
2022/05/15 08:23:46;;;;;;;4.13;1.70;;;22.90;56.20;;;;;;4964028;28;20288;-78
2022/05/15 08:26:15;;;;;;;2.47;1.42;;;23.00;56.30;;;;;;4962631;28;20746;-77
2022/05/15 08:28:43;;;;;;;3.25;1.40;;;23.10;56.00;;;;;;4962177;28;20573;-78
2022/05/15 08:31:12;;;;;;;2.60;1.33;;;23.10;55.50;;;;;;4966184;28;20197;-77
2022/05/15 08:33:42;;;;;;;2.78;1.33;;;23.20;55.70;;;;;;4957424;28;20228;-77
2022/05/15 08:36:11;;;;;;;5.82;2.05;;;23.30;55.60;;;;;;4966128;28;20880;-77
2022/05/15 08:38:40;;;;;;;4.78;1.60;;;23.40;55.70;;;;;;4958684;28;21489;-78
2022/05/15 08:41:18;;;;;;;1.88;1.42;;;23.50;55.50;;;;;;4965814;28;20225;-77
2022/05/15 08:43:49;;;;;;;3.90;1.60;;;23.60;54.90;;;;;;4964906;28;20193;-78
2022/05/15 08:46:28;;;;;;;2.88;1.50;;;23.60;54.80;;;;;;4958521;28;20241;-77
2022/05/15 08:49:06;;;;;;;2.67;1.42;;;23.70;54.70;;;;;;4958359;28;20871;-78
2022/05/15 08:51:35;;;;;;;4.30;1.42;;;23.90;55.00;;;;;;4960531;28;20194;-79
2022/05/15 08:54:08;;;;;;;6.05;1.70;;;24.00;55.10;;;;;;4966753;28;20217;-78
2022/05/15 08:56:44;;;;;;;5.15;1.60;;;24.10;54.80;;;;;;4962192;28;20611;-78
2022/05/15 08:59:23;;;;;;;3.60;1.80;;;24.10;54.10;;;;;;4960727;28;20232;-79
2022/05/15 09:01:54;;;;;;;3.13;1.40;;;24.20;54.10;;;;;;4953361;28;20192;-77
2022/05/15 09:04:25;;;;;;;3.17;1.85;;;24.30;53.60;;;;;;4959534;28;20197;-78
2022/05/15 09:07:11;;;;;;;3.97;1.60;;;24.30;53.70;;;;;;4959444;28;20924;-77
2022/05/15 09:09:49;;;;;;;3.70;1.40;;;24.50;53.90;;;;;;4966985;28;20190;-78
2022/05/15 09:12:20;;;;;;;4.88;1.52;;;24.50;53.50;;;;;;4957835;28;20214;-78
2022/05/15 09:15:12;;;;;;;2.30;1.75;;;24.60;53.60;;;;;;4960448;28;20966;-78
2022/05/15 09:17:47;;;;;;;3.42;1.85;;;24.70;53.60;;;;;;4964541;28;20190;-77
2022/05/15 09:20:22;;;;;;;4.95;2.47;;;24.80;52.60;;;;;;4963544;28;20237;-79
2022/05/15 09:22:58;;;;;;;4.22;1.90;;;24.90;52.90;;;;;;4961017;28;20193;-78
2022/05/15 09:25:27;;;;;;;3.75;2.00;;;25.00;52.90;;;;;;4968614;28;20197;-78
2022/05/15 09:28:02;;;;;;;4.13;1.80;;;25.10;53.10;;;;;;4968663;28;20213;-78
2022/05/15 09:30:37;;;;;;;3.88;1.70;;;25.20;52.10;;;;;;4969538;28;20284;-78
2022/05/15 09:33:06;;;;;;;5.00;1.80;;;25.30;52.10;;;;;;4967847;28;20236;-78
2022/05/15 09:35:38;;;;;;;5.53;2.20;;;25.40;52.40;;;;;;4967884;28;20711;-77
2022/05/15 09:43:53;;;;;;;4.00;1.90;;;25.60;51.90;;;;;;4928853;28;20198;-78
2022/05/15 09:46:25;;;;;;;3.60;1.63;;;25.70;52.20;;;;;;4960034;28;20237;-79
2022/05/15 09:48:57;;;;;;;4.28;2.10;;;25.70;51.80;;;;;;4966143;28;20594;-78
2022/05/15 09:51:35;;;;;;;6.07;1.90;;;25.70;51.20;;;;;;4965469;28;20197;-78
2022/05/15 09:54:04;;;;;;;7.07;1.90;;;25.70;51.00;;;;;;4968728;28;20675;-82
2022/05/15 09:56:35;;;;;;;3.15;2.00;;;25.80;51.40;;;;;;4968753;28;20198;-77
2022/05/15 09:59:11;;;;;;;6.68;2.03;;;25.80;51.30;;;;;;4959576;28;20190;-79
2022/05/15 10:01:51;;;;;;;6.72;1.88;;;25.80;51.60;;;;;;4958524;28;20204;-80
2022/05/15 10:04:25;;;;;;;6.15;2.05;;;25.90;52.10;;;;;;4962625;28;20256;-79
2022/05/15 10:06:58;;;;;;;5.10;1.98;;;26.00;52.30;;;;;;4962814;28;20194;-79
2022/05/15 10:09:32;;;;;;;4.10;2.20;;;26.00;52.30;;;;;;4962607;28;20265;-77
2022/05/15 10:12:03;;;;;;;4.00;2.10;;;26.10;52.40;;;;;;4961393;28;20691;-79
2022/05/15 10:14:42;;;;;;;3.55;2.00;;;26.10;52.20;;;;;;4959098;28;20737;-81
2022/05/15 10:17:13;;;;;;;3.78;2.03;;;26.20;52.40;;;;;;4957622;28;20216;-79
2022/05/15 10:19:47;;;;;;;4.00;1.95;;;26.20;52.30;;;;;;4960661;28;20575;-79
2022/05/15 10:22:35;;;;;;;4.15;2.13;;;26.30;52.20;;;;;;4962304;28;20200;-79
2022/05/15 10:25:24;;;;;;;5.32;2.05;;;26.40;52.00;;;;;;4965398;28;20193;-81
2022/05/15 10:28:00;;;;;;;4.90;2.13;;;26.40;51.60;;;;;;4966372;28;20193;-77
2022/05/15 10:30:34;;;;;;;9.18;2.78;;;26.50;51.80;;;;;;4963443;28;20275;-80
2022/05/15 10:33:07;;;;;;;3.75;2.40;;;26.50;51.90;;;;;;4962805;28;20194;-79
2022/05/15 10:35:47;;;;;;;4.82;2.08;;;26.60;51.80;;;;;;4965446;28;20214;-77
2022/05/15 10:38:30;;;;;;;6.35;2.47;;;26.60;51.50;;;;;;4964565;28;20727;-79
2022/05/15 10:41:10;;;;;;;4.38;2.30;;;26.60;51.30;;;;;;4958191;28;20252;-78
2022/05/15 10:43:50;;;;;;;4.03;2.17;;;26.60;51.10;;;;;;4958995;28;20201;-80
2022/05/15 10:46:28;;;;;;;7.43;1.85;;;26.60;50.70;;;;;;4963250;28;20312;-78
2022/05/15 10:49:05;;;;;;;5.05;2.70;;;26.60;51.10;;;;;;4964619;28;20193;-79
2022/05/15 10:51:40;;;;;;;5.15;2.85;;;26.70;51.50;;;;;;4964811;28;20724;-80
2022/05/15 10:57:35;;;;;;;3.17;2.30;;;26.80;51.60;;;;;;4958321;28;20186;-79
2022/05/15 11:00:15;;;;;;;5.50;2.42;;;26.80;51.30;;;;;;4969334;28;20209;-82
2022/05/15 11:03:11;;;;;;;3.35;2.22;;;26.90;51.10;;;;;;4999373;28;20188;-78
2022/05/15 11:05:52;;;;;;;5.07;2.20;;;26.90;50.70;;;;;;4995453;28;20196;-78
2022/05/15 11:08:33;;;;;;;5.88;2.45;;;26.90;50.40;;;;;;4995471;28;20377;-79
2022/05/15 11:11:09;;;;;;;5.72;2.00;;;26.90;50.40;;;;;;5005559;28;20303;-78
2022/05/15 11:13:46;;;;;;;3.80;2.70;;;26.90;50.50;;;;;;4986655;28;20619;-80
2022/05/15 11:16:22;;;;;;;2.97;2.10;;;26.90;50.50;;;;;;4989126;28;20219;-78
2022/05/15 11:19:12;;;;;;;4.32;2.38;;;26.90;50.70;;;;;;4996160;28;20196;-78
2022/05/15 11:21:52;;;;;;;3.40;1.92;;;26.80;50.80;;;;;;5003164;28;20200;-78
2022/05/15 11:24:31;;;;;;;5.07;2.15;;;26.80;50.70;;;;;;5000958;28;20242;-78
2022/05/15 11:27:10;;;;;;;4.22;2.15;;;26.80;50.70;;;;;;5001178;28;20224;-78
2022/05/15 11:29:44;;;;;;;3.85;1.95;;;26.80;50.50;;;;;;4995314;28;20204;-78
2022/05/15 11:32:40;;;;;;;4.57;2.08;;;26.80;50.60;;;;;;4952059;28;20209;-79
2022/05/15 11:35:25;;;;;;;7.30;2.30;;;26.90;50.70;;;;;;4993950;28;20217;-78
2022/05/15 11:38:04;;;;;;;4.13;2.08;;;26.90;50.70;;;;;;4992376;28;20212;-78
2022/05/15 11:40:40;;;;;;;7.10;2.53;;;27.10;51.10;;;;;;4991366;28;20591;-78
2022/05/15 11:43:59;;;;;;;3.80;2.20;;;27.20;51.10;;;;;;4994858;28;20564;-79
2022/05/15 11:47:00;;;;;;;5.10;2.38;;;27.30;51.00;;;;;;4985115;28;20225;-79
2022/05/15 11:49:35;;;;;;;3.63;2.10;;;27.40;50.70;;;;;;4992346;28;20200;-78
2022/05/15 11:52:33;;;;;;;8.02;2.10;;;27.50;50.60;;;;;;4990561;28;20196;-78
2022/05/15 11:55:02;;;;;;;6.85;2.40;;;27.50;50.30;;;;;;4995661;28;20196;-78
2022/05/15 11:57:40;;;;;;;3.25;1.92;;;27.60;50.00;;;;;;4988285;28;20204;-79
2022/05/15 12:00:23;;;;;;;4.10;1.90;;;27.60;49.80;;;;;;4985346;28;20198;-77
2022/05/15 12:02:55;;;;;;;3.58;1.80;;;27.70;49.50;;;;;;4997131;28;20192;-80
2022/05/15 12:05:31;;;;;;;4.95;2.65;;;27.80;49.30;;;;;;4982127;28;20205;-81
2022/05/15 12:08:06;;;;;;;4.57;2.08;;;27.80;49.00;;;;;;4985139;28;20204;-79
2022/05/15 12:10:58;;;;;;;4.13;2.30;;;27.90;49.00;;;;;;5003216;28;20192;-78
2022/05/15 12:13:40;;;;;;;2.88;2.20;;;28.00;49.00;;;;;;4987049;28;20209;-80
2022/05/15 12:16:22;;;;;;;3.60;2.08;;;28.00;48.60;;;;;;4997163;28;20220;-78
2022/05/15 12:19:06;;;;;;;5.28;2.20;;;27.90;48.00;;;;;;4992638;28;20699;-79
2022/05/15 12:21:40;;;;;;;3.50;2.08;;;27.90;48.30;;;;;;4992704;28;20200;-78
2022/05/15 12:24:30;;;;;;;5.53;2.80;;;27.90;48.40;;;;;;4990780;28;20200;-79
2022/05/15 12:27:29;;;;;;;6.18;2.30;;;27.90;48.60;;;;;;4990946;28;20739;-79
2022/05/15 12:30:12;;;;;;;5.20;2.13;;;27.90;48.40;;;;;;5002102;28;20705;-78
2022/05/15 12:32:45;;;;;;;6.18;1.90;;;27.90;48.40;;;;;;5001662;28;20249;-77
2022/05/15 12:35:16;;;;;;;6.55;2.60;;;27.90;48.20;;;;;;5001233;28;20196;-78
2022/05/15 12:37:54;;;;;;;4.28;2.50;;;27.90;48.50;;;;;;5003051;28;20230;-78
2022/05/15 12:40:28;;;;;;;4.97;2.08;;;28.00;48.10;;;;;;4995780;28;20196;-78
2022/05/15 12:42:59;;;;;;;7.95;2.80;;;28.00;48.40;;;;;;4988986;28;20192;-77
2022/05/15 12:45:29;;;;;;;5.45;2.42;;;28.10;48.40;;;;;;4980844;28;20717;-77
2022/05/15 12:48:07;;;;;;;6.45;2.40;;;28.10;48.00;;;;;;4984920;28;20255;-78
2022/05/15 12:50:48;;;;;;;4.00;2.33;;;28.20;48.00;;;;;;4995493;28;20197;-78
2022/05/15 12:53:21;;;;;;;5.03;2.85;;;28.20;48.20;;;;;;4988475;28;20867;-78
2022/05/15 12:55:50;;;;;;;5.15;2.60;;;28.20;48.00;;;;;;4982988;28;20233;-77
2022/05/15 12:58:30;;;;;;;4.00;2.45;;;28.30;48.20;;;;;;4987471;28;20209;-78
2022/05/15 13:00:58;;;;;;;4.40;2.10;;;28.40;48.10;;;;;;4986405;28;20200;-79
2022/05/15 13:03:28;;;;;;;5.32;2.33;;;28.50;47.90;;;;;;4995085;28;20995;-79
2022/05/15 13:05:59;;;;;;;5.28;2.20;;;28.60;48.00;;;;;;5004630;28;20882;-79
2022/05/15 13:08:43;;;;;;;7.93;2.40;;;28.60;47.50;;;;;;5006207;28;20250;-80
2022/05/15 13:11:19;;;;;;;4.43;1.77;;;28.70;46.90;;;;;;4998724;28;20220;-78
2022/05/15 13:13:50;;;;;;;4.38;1.77;;;28.80;47.40;;;;;;4991792;28;20283;-78
2022/05/15 13:16:21;;;;;;;3.80;2.10;;;28.90;47.10;;;;;;4995670;28;20219;-79
2022/05/15 13:18:54;;;;;;;5.15;1.80;;;29.00;47.20;;;;;;4992942;28;20296;-79
2022/05/15 13:21:28;;;;;;;4.50;2.50;;;29.00;46.60;;;;;;4986156;28;20239;-78
2022/05/15 13:23:57;;;;;;;4.60;1.60;;;29.00;45.70;;;;;;5006752;28;20188;-78
2022/05/15 13:26:30;;;;;;;4.38;2.78;;;28.90;45.00;;;;;;4996181;28;20196;-80
2022/05/15 13:29:01;;;;;;;8.82;5.10;;;28.90;45.10;;;;;;5003180;28;20562;-79
2022/05/15 13:31:32;;;;;;;10.57;4.38;;;28.80;45.40;;;;;;4994943;28;20201;-79